sensor_id;sensor_type;location;lat;lon;timestamp;pressure;altitude;pressure_sealevel;temperature;humidity
65557;BME280;52200;53.490;14.376;2022-12-18T00:00:05;103132.09;;;-5.53;91.83
65557;BME280;52200;53.490;14.376;2022-12-18T00:02:31;103143.03;;;-5.19;91.62
65557;BME280;52200;53.490;14.376;2022-12-18T00:04:56;103140.28;;;-5.44;90.72
65557;BME280;52200;53.490;14.376;2022-12-18T00:07:22;103134.63;;;-5.21;91.29
65557;BME280;52200;53.490;14.376;2022-12-18T00:09:47;103135.22;;;-5.45;91.67
65557;BME280;52200;53.490;14.376;2022-12-18T00:12:13;103137.75;;;-5.23;91.00
65557;BME280;52200;53.490;14.376;2022-12-18T00:14:38;103144.50;;;-5.10;90.64
65557;BME280;52200;53.490;14.376;2022-12-18T00:17:04;103150.19;;;-5.44;90.66
65557;BME280;52200;53.490;14.376;2022-12-18T00:19:29;103148.72;;;-5.09;90.36
65557;BME280;52200;53.490;14.376;2022-12-18T00:21:55;103156.63;;;-5.03;89.87
65557;BME280;52200;53.490;14.376;2022-12-18T00:24:20;103155.09;;;-4.91;88.91
65557;BME280;52200;53.490;14.376;2022-12-18T00:26:46;103151.09;;;-5.21;90.10
65557;BME280;52200;53.490;14.376;2022-12-18T00:29:13;103152.81;;;-4.88;88.08
65557;BME280;52200;53.490;14.376;2022-12-18T00:31:40;103147.88;;;-5.10;89.09
65557;BME280;52200;53.490;14.376;2022-12-18T00:34:05;103147.25;;;-5.18;88.80
65557;BME280;52200;53.490;14.376;2022-12-18T00:36:33;103148.66;;;-4.99;89.61
65557;BME280;52200;53.490;14.376;2022-12-18T00:39:01;103161.38;;;-5.16;89.74
65557;BME280;52200;53.490;14.376;2022-12-18T00:41:27;103154.66;;;-5.07;89.15
65557;BME280;52200;53.490;14.376;2022-12-18T00:44:13;103156.34;;;-5.39;89.58
65557;BME280;52200;53.490;14.376;2022-12-18T00:46:40;103152.94;;;-5.61;90.37
65557;BME280;52200;53.490;14.376;2022-12-18T00:49:06;103155.81;;;-5.77;90.88
65557;BME280;52200;53.490;14.376;2022-12-18T00:51:32;103156.78;;;-5.65;91.04
65557;BME280;52200;53.490;14.376;2022-12-18T00:53:57;103157.66;;;-5.75;91.28
65557;BME280;52200;53.490;14.376;2022-12-18T00:56:23;103162.22;;;-5.79;91.76
65557;BME280;52200;53.490;14.376;2022-12-18T00:58:49;103162.47;;;-5.66;91.65
65557;BME280;52200;53.490;14.376;2022-12-18T01:01:15;103165.41;;;-5.39;91.07
65557;BME280;52200;53.490;14.376;2022-12-18T01:03:41;103172.44;;;-5.23;90.56
65557;BME280;52200;53.490;14.376;2022-12-18T01:06:09;103168.75;;;-5.39;89.92
65557;BME280;52200;53.490;14.376;2022-12-18T01:08:35;103178.69;;;-5.49;90.61
65557;BME280;52200;53.490;14.376;2022-12-18T01:11:07;103180.84;;;-5.21;90.18
65557;BME280;52200;53.490;14.376;2022-12-18T01:13:32;103182.56;;;-5.20;89.76
65557;BME280;52200;53.490;14.376;2022-12-18T01:15:58;103183.09;;;-5.35;89.29
65557;BME280;52200;53.490;14.376;2022-12-18T01:18:24;103182.91;;;-5.48;89.25
65557;BME280;52200;53.490;14.376;2022-12-18T01:20:49;103186.72;;;-5.62;89.83
65557;BME280;52200;53.490;14.376;2022-12-18T01:23:15;103192.94;;;-5.57;90.15
65557;BME280;52200;53.490;14.376;2022-12-18T01:25:40;103183.03;;;-5.57;90.50
65557;BME280;52200;53.490;14.376;2022-12-18T01:28:06;103177.69;;;-5.72;90.99
65557;BME280;52200;53.490;14.376;2022-12-18T01:30:31;103179.78;;;-5.45;90.71
65557;BME280;52200;53.490;14.376;2022-12-18T01:32:56;103185.03;;;-5.63;90.42
65557;BME280;52200;53.490;14.376;2022-12-18T01:35:22;103178.56;;;-5.61;91.27
65557;BME280;52200;53.490;14.376;2022-12-18T01:37:48;103184.59;;;-5.37;91.14
65557;BME280;52200;53.490;14.376;2022-12-18T01:40:13;103187.34;;;-5.44;90.58
65557;BME280;52200;53.490;14.376;2022-12-18T01:42:39;103192.09;;;-5.14;90.05
65557;BME280;52200;53.490;14.376;2022-12-18T01:47:47;103189.78;;;-5.34;89.53
65557;BME280;52200;53.490;14.376;2022-12-18T01:53:04;103199.06;;;-5.21;89.40
65557;BME280;52200;53.490;14.376;2022-12-18T01:56:06;103204.38;;;-5.16;88.73
65557;BME280;52200;53.490;14.376;2022-12-18T01:58:54;103211.72;;;-5.28;89.94
65557;BME280;52200;53.490;14.376;2022-12-18T02:01:18;103211.19;;;-5.13;89.18
65557;BME280;52200;53.490;14.376;2022-12-18T02:03:44;103211.88;;;-5.04;88.67
65557;BME280;52200;53.490;14.376;2022-12-18T02:06:20;103209.81;;;-5.20;88.93
65557;BME280;52200;53.490;14.376;2022-12-18T02:11:52;103206.06;;;-5.05;88.49
65557;BME280;52200;53.490;14.376;2022-12-18T02:14:33;103209.38;;;-4.94;89.25
65557;BME280;52200;53.490;14.376;2022-12-18T02:17:11;103208.78;;;-5.02;87.91
65557;BME280;52200;53.490;14.376;2022-12-18T02:27:59;103218.94;;;-5.72;89.87
65557;BME280;52200;53.490;14.376;2022-12-18T02:30:30;103218.56;;;-5.67;90.17
65557;BME280;52200;53.490;14.376;2022-12-18T02:32:57;103224.13;;;-5.90;89.89
65557;BME280;52200;53.490;14.376;2022-12-18T02:35:28;103221.88;;;-5.87;90.81
65557;BME280;52200;53.490;14.376;2022-12-18T02:37:55;103219.19;;;-5.69;90.45
65557;BME280;52200;53.490;14.376;2022-12-18T02:40:22;103218.53;;;-5.46;89.87
65557;BME280;52200;53.490;14.376;2022-12-18T02:42:48;103220.19;;;-6.08;90.68
65557;BME280;52200;53.490;14.376;2022-12-18T02:45:14;103226.38;;;-6.03;90.88
65557;BME280;52200;53.490;14.376;2022-12-18T02:47:42;103222.38;;;-6.11;91.16
65557;BME280;52200;53.490;14.376;2022-12-18T02:53:20;103218.56;;;-6.18;91.09
65557;BME280;52200;53.490;14.376;2022-12-18T03:03:52;103210.28;;;-6.19;90.95
65557;BME280;52200;53.490;14.376;2022-12-18T03:06:27;103209.03;;;-6.03;90.96
65557;BME280;52200;53.490;14.376;2022-12-18T03:08:59;103221.88;;;-6.18;90.84
65557;BME280;52200;53.490;14.376;2022-12-18T03:11:28;103222.13;;;-6.25;91.00
65557;BME280;52200;53.490;14.376;2022-12-18T03:14:16;103228.69;;;-6.15;91.18
65557;BME280;52200;53.490;14.376;2022-12-18T03:16:44;103240.59;;;-6.01;90.74
65557;BME280;52200;53.490;14.376;2022-12-18T03:19:15;103239.31;;;-5.95;90.52
65557;BME280;52200;53.490;14.376;2022-12-18T03:21:47;103239.69;;;-6.11;90.07
65557;BME280;52200;53.490;14.376;2022-12-18T03:24:15;103243.63;;;-6.34;90.61
65557;BME280;52200;53.490;14.376;2022-12-18T03:26:46;103241.88;;;-6.65;91.64
65557;BME280;52200;53.490;14.376;2022-12-18T03:29:22;103249.69;;;-6.60;92.24
65557;BME280;52200;53.490;14.376;2022-12-18T03:31:55;103246.22;;;-6.62;91.90
65557;BME280;52200;53.490;14.376;2022-12-18T03:34:29;103241.03;;;-6.65;92.44
65557;BME280;52200;53.490;14.376;2022-12-18T03:36:56;103247.56;;;-6.36;92.06
65557;BME280;52200;53.490;14.376;2022-12-18T03:39:21;103256.94;;;-6.42;91.47
65557;BME280;52200;53.490;14.376;2022-12-18T03:41:51;103251.72;;;-6.56;92.05
65557;BME280;52200;53.490;14.376;2022-12-18T03:44:28;103248.59;;;-6.24;91.04
65557;BME280;52200;53.490;14.376;2022-12-18T03:54:47;103258.16;;;-5.87;89.93
65557;BME280;52200;53.490;14.376;2022-12-18T03:57:22;103253.59;;;-5.83;89.12
65557;BME280;52200;53.490;14.376;2022-12-18T03:59:53;103260.00;;;-6.05;89.27
65557;BME280;52200;53.490;14.376;2022-12-18T04:02:22;103258.47;;;-6.24;90.44
65557;BME280;52200;53.490;14.376;2022-12-18T04:04:55;103258.25;;;-6.17;89.89
65557;BME280;52200;53.490;14.376;2022-12-18T04:07:23;103258.47;;;-6.24;90.97
65557;BME280;52200;53.490;14.376;2022-12-18T04:09:52;103249.50;;;-6.42;91.15
65557;BME280;52200;53.490;14.376;2022-12-18T04:12:19;103257.69;;;-6.43;91.65
65557;BME280;52200;53.490;14.376;2022-12-18T04:14:44;103258.16;;;-6.48;91.97
65557;BME280;52200;53.490;14.376;2022-12-18T04:17:10;103255.97;;;-6.44;92.37
65557;BME280;52200;53.490;14.376;2022-12-18T04:19:36;103264.34;;;-6.42;93.04
65557;BME280;52200;53.490;14.376;2022-12-18T04:22:01;103269.56;;;-6.39;93.15
65557;BME280;52200;53.490;14.376;2022-12-18T04:24:26;103271.50;;;-6.16;92.83
65557;BME280;52200;53.490;14.376;2022-12-18T04:26:52;103274.84;;;-6.16;92.17
65557;BME280;52200;53.490;14.376;2022-12-18T04:29:17;103267.72;;;-5.81;91.97
65557;BME280;52200;53.490;14.376;2022-12-18T04:31:43;103269.06;;;-5.85;90.70
65557;BME280;52200;53.490;14.376;2022-12-18T04:34:08;103275.09;;;-6.12;91.36
65557;BME280;52200;53.490;14.376;2022-12-18T04:36:34;103254.00;;;-6.38;91.97
65557;BME280;52200;53.490;14.376;2022-12-18T04:38:59;103249.84;;;-6.19;92.61
65557;BME280;52200;53.490;14.376;2022-12-18T04:41:25;103240.72;;;-6.09;91.93
65557;BME280;52200;53.490;14.376;2022-12-18T04:43:50;103240.25;;;-6.45;92.60
65557;BME280;52200;53.490;14.376;2022-12-18T04:46:15;103244.84;;;-6.29;93.27
65557;BME280;52200;53.490;14.376;2022-12-18T04:48:41;103262.19;;;-6.29;93.70
65557;BME280;52200;53.490;14.376;2022-12-18T04:51:06;103256.31;;;-5.90;92.98
65557;BME280;52200;53.490;14.376;2022-12-18T04:53:33;103254.44;;;-5.92;92.24
65557;BME280;52200;53.490;14.376;2022-12-18T04:56:09;103255.31;;;-5.71;91.46
65557;BME280;52200;53.490;14.376;2022-12-18T04:58:37;103255.78;;;-5.86;91.28
65557;BME280;52200;53.490;14.376;2022-12-18T05:01:03;103268.91;;;-5.87;91.54
65557;BME280;52200;53.490;14.376;2022-12-18T05:03:29;103276.13;;;-5.59;91.15
65557;BME280;52200;53.490;14.376;2022-12-18T05:05:54;103277.50;;;-5.73;90.47
65557;BME280;52200;53.490;14.376;2022-12-18T05:08:20;103286.75;;;-5.50;90.20
65557;BME280;52200;53.490;14.376;2022-12-18T05:10:45;103292.84;;;-5.67;89.73
65557;BME280;52200;53.490;14.376;2022-12-18T05:13:11;103292.47;;;-5.40;89.53
65557;BME280;52200;53.490;14.376;2022-12-18T05:15:36;103295.94;;;-5.48;89.88
65557;BME280;52200;53.490;14.376;2022-12-18T05:18:02;103300.25;;;-5.77;90.05
65557;BME280;52200;53.490;14.376;2022-12-18T05:20:29;103303.56;;;-6.07;90.75
65557;BME280;52200;53.490;14.376;2022-12-18T05:22:55;103309.16;;;-5.79;91.59
65557;BME280;52200;53.490;14.376;2022-12-18T05:25:21;103316.94;;;-5.95;92.04
65557;BME280;52200;53.490;14.376;2022-12-18T05:27:47;103319.66;;;-5.92;91.67
65557;BME280;52200;53.490;14.376;2022-12-18T05:30:13;103321.41;;;-5.80;91.24
65557;BME280;52200;53.490;14.376;2022-12-18T05:32:40;103320.09;;;-5.56;91.53
65557;BME280;52200;53.490;14.376;2022-12-18T05:35:07;103315.00;;;-5.37;90.66
65557;BME280;52200;53.490;14.376;2022-12-18T05:37:33;103317.38;;;-5.39;89.94
65557;BME280;52200;53.490;14.376;2022-12-18T05:39:59;103323.56;;;-5.23;89.48
65557;BME280;52200;53.490;14.376;2022-12-18T05:42:24;103327.00;;;-5.52;89.52
65557;BME280;52200;53.490;14.376;2022-12-18T05:44:50;103324.06;;;-5.48;89.84
65557;BME280;52200;53.490;14.376;2022-12-18T05:47:15;103322.81;;;-5.32;89.41
65557;BME280;52200;53.490;14.376;2022-12-18T05:49:41;103323.06;;;-5.50;89.26
65557;BME280;52200;53.490;14.376;2022-12-18T05:52:06;103324.44;;;-5.23;89.76
65557;BME280;52200;53.490;14.376;2022-12-18T05:54:32;103335.31;;;-5.52;88.86
65557;BME280;52200;53.490;14.376;2022-12-18T05:56:58;103337.00;;;-5.81;90.60
65557;BME280;52200;53.490;14.376;2022-12-18T05:59:23;103339.53;;;-5.51;90.27
65557;BME280;52200;53.490;14.376;2022-12-18T06:01:49;103327.75;;;-5.53;89.55
65557;BME280;52200;53.490;14.376;2022-12-18T06:04:15;103335.78;;;-5.76;90.26
65557;BME280;52200;53.490;14.376;2022-12-18T06:06:40;103315.53;;;-6.12;91.16
65557;BME280;52200;53.490;14.376;2022-12-18T06:09:06;103313.47;;;-6.07;91.41
65557;BME280;52200;53.490;14.376;2022-12-18T06:11:35;103323.59;;;-6.04;91.88
65557;BME280;52200;53.490;14.376;2022-12-18T06:14:02;103314.59;;;-6.33;92.27
65557;BME280;52200;53.490;14.376;2022-12-18T06:16:28;103329.53;;;-6.12;92.82
65557;BME280;52200;53.490;14.376;2022-12-18T06:19:01;103331.25;;;-6.11;92.59
65557;BME280;52200;53.490;14.376;2022-12-18T06:21:27;103340.22;;;-5.83;91.42
65557;BME280;52200;53.490;14.376;2022-12-18T06:23:53;103345.75;;;-5.95;91.04
65557;BME280;52200;53.490;14.376;2022-12-18T06:26:19;103348.97;;;-6.07;91.54
65557;BME280;52200;53.490;14.376;2022-12-18T06:28:45;103361.72;;;-6.32;91.79
65557;BME280;52200;53.490;14.376;2022-12-18T06:31:11;103364.59;;;-6.27;92.15
65557;BME280;52200;53.490;14.376;2022-12-18T06:33:37;103380.16;;;-5.88;92.13
65557;BME280;52200;53.490;14.376;2022-12-18T06:36:08;103384.50;;;-6.06;91.10
65557;BME280;52200;53.490;14.376;2022-12-18T06:38:35;103381.72;;;-6.39;92.24
65557;BME280;52200;53.490;14.376;2022-12-18T06:41:06;103378.63;;;-6.36;92.16
65557;BME280;52200;53.490;14.376;2022-12-18T06:43:31;103365.81;;;-6.32;92.23
65557;BME280;52200;53.490;14.376;2022-12-18T06:46:00;103359.72;;;-6.36;92.45
65557;BME280;52200;53.490;14.376;2022-12-18T06:48:25;103361.53;;;-6.14;91.83
65557;BME280;52200;53.490;14.376;2022-12-18T06:50:51;103359.34;;;-6.40;92.03
65557;BME280;52200;53.490;14.376;2022-12-18T06:53:16;103357.06;;;-6.48;92.61
65557;BME280;52200;53.490;14.376;2022-12-18T06:55:42;103356.75;;;-6.42;92.89
65557;BME280;52200;53.490;14.376;2022-12-18T06:58:08;103357.91;;;-6.28;92.92
65557;BME280;52200;53.490;14.376;2022-12-18T07:00:34;103365.63;;;-6.14;92.06
65557;BME280;52200;53.490;14.376;2022-12-18T07:02:59;103370.06;;;-6.21;92.54
65557;BME280;52200;53.490;14.376;2022-12-18T07:05:25;103382.19;;;-6.43;93.15
65557;BME280;52200;53.490;14.376;2022-12-18T07:07:50;103386.41;;;-6.42;93.41
65557;BME280;52200;53.490;14.376;2022-12-18T07:10:16;103390.47;;;-6.42;93.56
65557;BME280;52200;53.490;14.376;2022-12-18T07:12:41;103394.47;;;-6.34;93.40
65557;BME280;52200;53.490;14.376;2022-12-18T07:15:07;103386.16;;;-6.16;92.86
65557;BME280;52200;53.490;14.376;2022-12-18T07:17:33;103381.53;;;-6.02;92.38
65557;BME280;52200;53.490;14.376;2022-12-18T07:19:58;103386.28;;;-6.14;92.24
65557;BME280;52200;53.490;14.376;2022-12-18T07:22:25;103381.25;;;-6.05;92.22
65557;BME280;52200;53.490;14.376;2022-12-18T07:24:51;103389.69;;;-6.03;91.63
65557;BME280;52200;53.490;14.376;2022-12-18T07:27:16;103389.66;;;-6.13;92.02
65557;BME280;52200;53.490;14.376;2022-12-18T07:29:42;103392.13;;;-6.13;92.23
65557;BME280;52200;53.490;14.376;2022-12-18T07:32:07;103390.19;;;-6.26;92.12
65557;BME280;52200;53.490;14.376;2022-12-18T07:34:33;103385.84;;;-6.29;92.63
65557;BME280;52200;53.490;14.376;2022-12-18T07:36:59;103380.13;;;-6.38;93.40
65557;BME280;52200;53.490;14.376;2022-12-18T07:39:24;103393.91;;;-6.21;93.21
65557;BME280;52200;53.490;14.376;2022-12-18T07:41:50;103395.41;;;-6.42;92.78
65557;BME280;52200;53.490;14.376;2022-12-18T07:44:34;103387.94;;;-6.53;93.29
65557;BME280;52200;53.490;14.376;2022-12-18T07:47:00;103392.41;;;-6.49;93.33
65557;BME280;52200;53.490;14.376;2022-12-18T07:49:25;103399.03;;;-6.39;93.74
65557;BME280;52200;53.490;14.376;2022-12-18T07:51:51;103410.50;;;-6.20;93.03
65557;BME280;52200;53.490;14.376;2022-12-18T07:54:16;103418.59;;;-6.12;92.69
65557;BME280;52200;53.490;14.376;2022-12-18T07:56:41;103425.66;;;-5.96;92.17
65557;BME280;52200;53.490;14.376;2022-12-18T07:59:07;103424.22;;;-6.24;92.97
65557;BME280;52200;53.490;14.376;2022-12-18T08:01:33;103423.44;;;-6.33;93.18
65557;BME280;52200;53.490;14.376;2022-12-18T08:03:59;103418.66;;;-6.21;93.12
65557;BME280;52200;53.490;14.376;2022-12-18T08:06:25;103421.38;;;-6.28;93.38
65557;BME280;52200;53.490;14.376;2022-12-18T08:08:52;103425.72;;;-6.26;93.26
65557;BME280;52200;53.490;14.376;2022-12-18T08:11:18;103435.84;;;-6.23;93.87
65557;BME280;52200;53.490;14.376;2022-12-18T08:13:44;103422.47;;;-5.95;93.22
65557;BME280;52200;53.490;14.376;2022-12-18T08:16:09;103433.91;;;-5.77;92.05
65557;BME280;52200;53.490;14.376;2022-12-18T08:18:36;103437.66;;;-5.72;91.08
65557;BME280;52200;53.490;14.376;2022-12-18T08:21:12;103448.31;;;-5.33;90.97
65557;BME280;52200;53.490;14.376;2022-12-18T08:23:38;103449.50;;;-5.48;89.73
65557;BME280;52200;53.490;14.376;2022-12-18T08:26:05;103440.59;;;-5.36;89.88
65557;BME280;52200;53.490;14.376;2022-12-18T08:28:31;103442.47;;;-5.34;89.28
65557;BME280;52200;53.490;14.376;2022-12-18T08:30:56;103438.91;;;-5.27;88.84
65557;BME280;52200;53.490;14.376;2022-12-18T08:33:22;103432.63;;;-5.63;90.33
65557;BME280;52200;53.490;14.376;2022-12-18T08:35:47;103417.41;;;-5.87;90.65
65557;BME280;52200;53.490;14.376;2022-12-18T08:38:13;103423.59;;;-5.92;91.15
65557;BME280;52200;53.490;14.376;2022-12-18T08:40:38;103417.22;;;-6.09;91.58
65557;BME280;52200;53.490;14.376;2022-12-18T08:43:04;103418.19;;;-5.88;91.36
65557;BME280;52200;53.490;14.376;2022-12-18T08:45:48;103418.69;;;-5.81;91.06
65557;BME280;52200;53.490;14.376;2022-12-18T08:48:14;103415.31;;;-5.92;91.20
65557;BME280;52200;53.490;14.376;2022-12-18T08:50:39;103427.69;;;-5.92;91.52
65557;BME280;52200;53.490;14.376;2022-12-18T08:53:05;103433.97;;;-5.96;91.56
65557;BME280;52200;53.490;14.376;2022-12-18T08:55:31;103434.50;;;-5.90;91.82
65557;BME280;52200;53.490;14.376;2022-12-18T08:57:56;103440.81;;;-5.54;91.04
65557;BME280;52200;53.490;14.376;2022-12-18T09:00:21;103440.91;;;-5.62;90.66
65557;BME280;52200;53.490;14.376;2022-12-18T09:02:47;103446.72;;;-5.62;90.65
65557;BME280;52200;53.490;14.376;2022-12-18T09:05:12;103441.16;;;-5.59;90.63
65557;BME280;52200;53.490;14.376;2022-12-18T09:07:38;103443.56;;;-5.51;90.30
65557;BME280;52200;53.490;14.376;2022-12-18T09:10:04;103447.28;;;-5.45;90.35
65557;BME280;52200;53.490;14.376;2022-12-18T09:12:29;103450.56;;;-5.26;89.51
65557;BME280;52200;53.490;14.376;2022-12-18T09:14:55;103458.84;;;-5.15;89.01
65557;BME280;52200;53.490;14.376;2022-12-18T09:17:22;103454.28;;;-5.21;88.51
65557;BME280;52200;53.490;14.376;2022-12-18T09:19:47;103460.91;;;-5.40;88.83
65557;BME280;52200;53.490;14.376;2022-12-18T09:22:13;103464.25;;;-5.40;89.33
65557;BME280;52200;53.490;14.376;2022-12-18T09:24:38;103461.31;;;-5.25;88.72
65557;BME280;52200;53.490;14.376;2022-12-18T09:27:04;103466.41;;;-5.24;89.25
65557;BME280;52200;53.490;14.376;2022-12-18T09:29:29;103458.88;;;-4.94;88.50
65557;BME280;52200;53.490;14.376;2022-12-18T09:31:55;103465.19;;;-4.98;88.11
65557;BME280;52200;53.490;14.376;2022-12-18T09:34:20;103462.72;;;-5.08;87.52
65557;BME280;52200;53.490;14.376;2022-12-18T09:36:47;103462.91;;;-5.36;88.77
65557;BME280;52200;53.490;14.376;2022-12-18T09:39:12;103463.81;;;-5.15;88.83
65557;BME280;52200;53.490;14.376;2022-12-18T09:41:51;103458.50;;;-5.20;88.99
65557;BME280;52200;53.490;14.376;2022-12-18T09:47:27;103459.84;;;-5.03;89.19
65557;BME280;52200;53.490;14.376;2022-12-18T09:50:01;103463.34;;;-5.11;88.60
65557;BME280;52200;53.490;14.376;2022-12-18T09:52:44;103461.47;;;-5.13;89.42
65557;BME280;52200;53.490;14.376;2022-12-18T09:55:17;103451.59;;;-4.82;88.75
65557;BME280;52200;53.490;14.376;2022-12-18T09:57:51;103450.06;;;-4.49;88.51
65557;BME280;52200;53.490;14.376;2022-12-18T10:00:21;103463.16;;;-4.19;87.07
65557;BME280;52200;53.490;14.376;2022-12-18T10:02:49;103455.00;;;-4.29;86.71
65557;BME280;52200;53.490;14.376;2022-12-18T10:05:17;103442.66;;;-4.91;87.60
65557;BME280;52200;53.490;14.376;2022-12-18T10:08:15;103446.09;;;-4.99;88.28
65557;BME280;52200;53.490;14.376;2022-12-18T10:10:54;103457.09;;;-5.37;89.72
65557;BME280;52200;53.490;14.376;2022-12-18T10:13:58;103454.50;;;-5.18;90.03
65557;BME280;52200;53.490;14.376;2022-12-18T10:26:52;103451.06;;;-5.09;89.38
65557;BME280;52200;53.490;14.376;2022-12-18T10:29:18;103450.78;;;-5.23;90.60
65557;BME280;52200;53.490;14.376;2022-12-18T10:31:44;103456.91;;;-4.98;90.16
65557;BME280;52200;53.490;14.376;2022-12-18T10:34:11;103428.03;;;-4.98;89.50
65557;BME280;52200;53.490;14.376;2022-12-18T10:36:37;103423.81;;;-4.89;89.50
65557;BME280;52200;53.490;14.376;2022-12-18T10:39:24;103423.91;;;-4.56;89.28
65557;BME280;52200;53.490;14.376;2022-12-18T10:41:51;103431.81;;;-4.40;88.50
65557;BME280;52200;53.490;14.376;2022-12-18T10:44:19;103434.69;;;-4.45;88.01
65557;BME280;52200;53.490;14.376;2022-12-18T10:46:47;103423.16;;;-4.02;87.54
65557;BME280;52200;53.490;14.376;2022-12-18T10:49:33;103421.66;;;-4.43;87.48
65557;BME280;52200;53.490;14.376;2022-12-18T10:52:14;103417.34;;;-4.66;89.00
65557;BME280;52200;53.490;14.376;2022-12-18T10:55:13;103416.00;;;-4.73;89.41
65557;BME280;52200;53.490;14.376;2022-12-18T11:00:24;103429.16;;;-4.74;89.08
65557;BME280;52200;53.490;14.376;2022-12-18T11:02:50;103429.50;;;-4.79;89.97
65557;BME280;52200;53.490;14.376;2022-12-18T11:05:42;103427.28;;;-4.87;89.88
65557;BME280;52200;53.490;14.376;2022-12-18T11:08:20;103417.09;;;-5.00;90.19
65557;BME280;52200;53.490;14.376;2022-12-18T11:10:47;103417.25;;;-4.98;90.04
65557;BME280;52200;53.490;14.376;2022-12-18T11:13:18;103423.31;;;-5.15;90.39
65557;BME280;52200;53.490;14.376;2022-12-18T11:15:46;103422.06;;;-5.00;91.00
65557;BME280;52200;53.490;14.376;2022-12-18T11:18:31;103428.72;;;-4.47;89.98
65557;BME280;52200;53.490;14.376;2022-12-18T11:21:09;103428.47;;;-4.50;88.60
65557;BME280;52200;53.490;14.376;2022-12-18T11:23:37;103429.00;;;-4.75;89.70
65557;BME280;52200;53.490;14.376;2022-12-18T11:26:09;103418.06;;;-4.46;89.99
65557;BME280;52200;53.490;14.376;2022-12-18T11:28:52;103417.34;;;-4.66;89.64
65557;BME280;52200;53.490;14.376;2022-12-18T11:31:32;103421.47;;;-4.66;89.33
65557;BME280;52200;53.490;14.376;2022-12-18T11:36:31;103407.25;;;-4.37;88.48
65557;BME280;52200;53.490;14.376;2022-12-18T11:39:02;103395.38;;;-4.08;88.08
65557;BME280;52200;53.490;14.376;2022-12-18T11:41:39;103393.69;;;-4.30;88.52
65557;BME280;52200;53.490;14.376;2022-12-18T11:44:28;103400.69;;;-4.46;88.47
65557;BME280;52200;53.490;14.376;2022-12-18T11:47:03;103398.38;;;-4.65;89.04
65557;BME280;52200;53.490;14.376;2022-12-18T11:49:34;103403.50;;;-4.95;90.41
65557;BME280;52200;53.490;14.376;2022-12-18T11:54:25;103401.56;;;-4.46;90.53
65557;BME280;52200;53.490;14.376;2022-12-18T11:59:45;103397.59;;;-4.44;90.03
65557;BME280;52200;53.490;14.376;2022-12-18T12:05:42;103393.03;;;-4.60;89.19
65557;BME280;52200;53.490;14.376;2022-12-18T12:11:04;103397.00;;;-4.51;90.79
65557;BME280;52200;53.490;14.376;2022-12-18T12:13:38;103401.81;;;-4.43;90.54
65557;BME280;52200;53.490;14.376;2022-12-18T12:16:34;103395.78;;;-4.67;90.89
65557;BME280;52200;53.490;14.376;2022-12-18T12:21:58;103384.50;;;-4.21;89.50
65557;BME280;52200;53.490;14.376;2022-12-18T12:24:37;103375.69;;;-4.17;89.50
65557;BME280;52200;53.490;14.376;2022-12-18T12:30:17;103384.81;;;-4.06;89.82
65557;BME280;52200;53.490;14.376;2022-12-18T12:32:45;103378.38;;;-4.14;89.91
65557;BME280;52200;53.490;14.376;2022-12-18T12:38:25;103395.16;;;-3.67;88.66
65557;BME280;52200;53.490;14.376;2022-12-18T12:41:02;103395.00;;;-3.80;88.50
65557;BME280;52200;53.490;14.376;2022-12-18T12:43:44;103399.88;;;-4.14;89.23
65557;BME280;52200;53.490;14.376;2022-12-18T12:46:16;103402.53;;;-4.01;90.07
65557;BME280;52200;53.490;14.376;2022-12-18T12:49:02;103404.19;;;-3.79;89.81
65557;BME280;52200;53.490;14.376;2022-12-18T12:51:40;103410.28;;;-4.08;89.33
65557;BME280;52200;53.490;14.376;2022-12-18T12:54:15;103415.97;;;-4.09;89.07
65557;BME280;52200;53.490;14.376;2022-12-18T12:59:56;103436.63;;;-4.21;90.24
65557;BME280;52200;53.490;14.376;2022-12-18T13:05:25;103433.19;;;-4.33;89.65
65557;BME280;52200;53.490;14.376;2022-12-18T13:08:11;103439.84;;;-4.22;89.33
65557;BME280;52200;53.490;14.376;2022-12-18T13:10:39;103446.13;;;-4.58;89.83
65557;BME280;52200;53.490;14.376;2022-12-18T13:13:10;103436.41;;;-4.44;90.48
65557;BME280;52200;53.490;14.376;2022-12-18T13:20:43;103422.16;;;-4.57;91.19
65557;BME280;52200;53.490;14.376;2022-12-18T13:25:45;103439.91;;;-4.53;91.40
65557;BME280;52200;53.490;14.376;2022-12-18T13:28:15;103448.69;;;-4.35;91.52
65557;BME280;52200;53.490;14.376;2022-12-18T13:30:44;103448.06;;;-4.33;91.70
65557;BME280;52200;53.490;14.376;2022-12-18T13:43:22;103429.91;;;-4.22;90.98
65557;BME280;52200;53.490;14.376;2022-12-18T13:46:21;103417.94;;;-4.48;90.96
65557;BME280;52200;53.490;14.376;2022-12-18T13:49:06;103410.13;;;-4.53;91.54
65557;BME280;52200;53.490;14.376;2022-12-18T13:51:49;103417.59;;;-4.73;92.31
65557;BME280;52200;53.490;14.376;2022-12-18T13:54:37;103427.25;;;-4.56;92.45
65557;BME280;52200;53.490;14.376;2022-12-18T13:57:22;103428.47;;;-4.40;91.62
65557;BME280;52200;53.490;14.376;2022-12-18T13:59:50;103417.84;;;-4.60;91.14
65557;BME280;52200;53.490;14.376;2022-12-18T14:02:20;103411.78;;;-4.84;92.53
65557;BME280;52200;53.490;14.376;2022-12-18T14:04:47;103417.63;;;-4.83;92.91
65557;BME280;52200;53.490;14.376;2022-12-18T14:07:16;103405.31;;;-4.61;91.85
65557;BME280;52200;53.490;14.376;2022-12-18T14:09:47;103403.47;;;-4.84;91.50
65557;BME280;52200;53.490;14.376;2022-12-18T14:12:21;103401.63;;;-4.87;92.66
65557;BME280;52200;53.490;14.376;2022-12-18T14:17:42;103412.88;;;-5.11;93.25
65557;BME280;52200;53.490;14.376;2022-12-18T14:20:14;103410.53;;;-5.20;93.23
65557;BME280;52200;53.490;14.376;2022-12-18T14:22:46;103406.97;;;-5.13;93.97
65557;BME280;52200;53.490;14.376;2022-12-18T14:27:45;103392.44;;;-5.19;93.53
65557;BME280;52200;53.490;14.376;2022-12-18T14:33:08;103360.72;;;-5.34;93.85
65557;BME280;52200;53.490;14.376;2022-12-18T14:35:39;103355.63;;;-5.35;93.95
65557;BME280;52200;53.490;14.376;2022-12-18T14:38:34;103371.50;;;-5.02;94.40